Time;durP1;ratioP1;P1;durP2;ratioP2;P2;SDS_P1;SDS_P2;PMS_P1;PMS_P2;Temp;Humidity;BMP_temperature;BMP_pressure;BME280_temperature;BME280_humidity;BME280_pressure;Samples;Min_cycle;Max_cycle;Signal;HPM_P1;HPM_P2
2022/06/22 00:02:06;;;;;;;3.83;2.20;;;;;;;18.69;100.00;98584.28;5050046;28;20221;-79
2022/06/22 00:04:42;;;;;;;6.47;2.20;;;;;;;18.82;100.00;98584.69;5053611;28;20197;-80
2022/06/22 00:07:15;;;;;;;2.60;1.60;;;;;;;18.84;100.00;98590.72;5053355;28;20200;-80
2022/06/22 00:09:46;;;;;;;2.83;1.83;;;;;;;18.75;100.00;98605.13;5056177;28;20189;-79
2022/06/22 00:12:25;;;;;;;3.43;1.80;;;;;;;18.71;100.00;98603.75;5051337;28;20214;-80
2022/06/22 00:14:56;;;;;;;3.07;1.60;;;;;;;18.72;100.00;98613.47;5055522;28;20189;-80
2022/06/22 00:17:31;;;;;;;2.87;1.80;;;;;;;18.69;100.00;98603.91;5004702;28;20208;-79
2022/06/22 00:20:06;;;;;;;3.00;1.77;;;;;;;18.65;100.00;98605.25;5089893;28;20681;-80
2022/06/22 00:22:48;;;;;;;4.23;1.60;;;;;;;18.66;100.00;98603.41;5094541;28;20306;-80
2022/06/22 00:25:23;;;;;;;2.67;1.50;;;;;;;18.65;100.00;98585.63;5093609;28;20196;-79
2022/06/22 00:27:51;;;;;;;1.90;1.60;;;;;;;18.72;100.00;98589.31;5094333;28;20191;-80
2022/06/22 00:30:24;;;;;;;3.50;2.10;;;;;;;18.60;100.00;98570.81;5096360;28;20192;-79
2022/06/22 00:33:16;;;;;;;3.33;1.50;;;;;;;18.55;100.00;98558.94;5095046;28;20299;-79
2022/06/22 00:36:14;;;;;;;2.53;1.60;;;;;;;18.48;100.00;98556.03;5089309;28;20214;-79
2022/06/22 00:38:42;;;;;;;2.20;1.70;;;;;;;18.56;100.00;98563.28;5096562;28;20261;-79
2022/06/22 00:41:18;;;;;;;5.03;1.47;;;;;;;18.55;100.00;98561.59;5095030;28;20311;-79
2022/06/22 00:43:48;;;;;;;4.27;1.63;;;;;;;18.58;100.00;98566.63;5093498;28;20206;-79
2022/06/22 00:46:20;;;;;;;6.23;1.70;;;;;;;18.55;100.00;98564.28;5095030;28;20190;-80
2022/06/22 00:48:52;;;;;;;3.07;1.73;;;;;;;18.35;100.00;98565.56;5096561;28;20636;-80
2022/06/22 00:51:26;;;;;;;3.90;1.87;;;;;;;18.32;100.00;98572.06;5090574;28;20200;-80
2022/06/22 00:54:00;;;;;;;3.23;1.70;;;;;;;18.21;100.00;98572.38;5089991;28;20203;-79
2022/06/22 00:56:42;;;;;;;3.47;1.57;;;;;;;18.26;100.00;98564.69;5096343;28;20199;-79
2022/06/22 00:59:22;;;;;;;2.67;1.50;;;;;;;18.18;100.00;98573.53;5094328;28;20204;-80
2022/06/22 01:01:55;;;;;;;2.97;1.87;;;;;;;18.34;100.00;98564.72;5094814;28;20216;-79
2022/06/22 01:04:29;;;;;;;3.27;1.60;;;;;;;18.34;100.00;98559.38;5095696;28;20217;-80
2022/06/22 01:07:06;;;;;;;3.87;1.93;;;;;;;18.31;100.00;98563.19;5096083;28;20200;-80
2022/06/22 01:09:41;;;;;;;3.20;2.00;;;;;;;18.24;100.00;98564.84;5095445;28;20192;-80
2022/06/22 01:12:19;;;;;;;2.87;1.67;;;;;;;18.27;100.00;98561.84;5095934;28;20202;-80
2022/06/22 01:14:59;;;;;;;1.97;1.53;;;;;;;18.15;100.00;98573.88;5098211;27;20191;-79
2022/06/22 01:17:33;;;;;;;2.03;1.63;;;;;;;17.92;100.00;98557.47;5095256;27;20192;-79
2022/06/22 01:20:09;;;;;;;2.97;1.97;;;;;;;17.83;100.00;98557.59;5094532;28;20298;-79
2022/06/22 01:22:50;;;;;;;2.53;1.90;;;;;;;17.85;100.00;98550.25;5095065;28;20215;-78
2022/06/22 01:25:34;;;;;;;3.80;2.17;;;;;;;17.61;100.00;98550.91;5098010;27;20198;-79
2022/06/22 01:28:05;;;;;;;2.13;1.70;;;;;;;17.33;100.00;98553.72;5095297;28;20210;-79
2022/06/22 01:30:38;;;;;;;3.57;2.17;;;;;;;17.16;100.00;98547.41;5090580;28;20200;-80
2022/06/22 01:33:09;;;;;;;3.87;2.30;;;;;;;17.20;100.00;98553.31;5095448;28;20200;-79
2022/06/22 01:35:39;;;;;;;5.20;2.40;;;;;;;17.12;100.00;98547.88;5092495;28;20637;-79
2022/06/22 01:38:15;;;;;;;5.97;2.80;;;;;;;17.06;100.00;98541.28;5096967;27;20230;-79
2022/06/22 01:40:50;;;;;;;3.90;2.57;;;;;;;16.92;100.00;98538.34;5095265;28;20195;-79
2022/06/22 01:43:29;;;;;;;5.17;2.53;;;;;;;16.92;100.00;98528.47;5095260;28;20222;-79
2022/06/22 01:46:05;;;;;;;3.53;2.23;;;;;;;17.05;100.00;98526.25;5094012;28;20198;-79
2022/06/22 01:48:40;;;;;;;3.23;2.30;;;;;;;17.03;100.00;98530.06;5095121;28;20202;-79
2022/06/22 01:51:14;;;;;;;4.60;2.53;;;;;;;17.04;100.00;98537.09;5098051;28;20215;-79
2022/06/22 01:53:48;;;;;;;2.53;2.00;;;;;;;17.07;100.00;98540.28;5056576;28;20229;-79
2022/06/22 01:56:24;;;;;;;3.67;2.00;;;;;;;17.06;100.00;98540.47;5054213;28;20212;-79
2022/06/22 01:59:10;;;;;;;3.27;2.03;;;;;;;17.14;100.00;98532.50;5053386;28;20185;-79
2022/06/22 02:01:43;;;;;;;3.97;1.90;;;;;;;17.22;100.00;98542.44;5048705;28;20204;-79
2022/06/22 02:04:23;;;;;;;3.57;2.10;;;;;;;17.23;100.00;98530.72;5053399;28;20217;-79
2022/06/22 02:09:56;;;;;;;2.60;1.70;;;;;;;17.11;100.00;98522.97;5052319;28;20205;-79
2022/06/22 02:12:31;;;;;;;3.20;1.83;;;;;;;17.03;100.00;98527.41;5049171;28;20212;-79
2022/06/22 02:15:11;;;;;;;3.03;1.93;;;;;;;16.69;100.00;98536.09;5051391;28;20644;-79
2022/06/22 02:17:42;;;;;;;3.33;2.10;;;;;;;16.92;100.00;98528.47;5056676;28;20223;-79
2022/06/22 02:20:29;;;;;;;3.77;2.03;;;;;;;17.03;100.00;98530.06;5094817;28;20203;-79
2022/06/22 02:23:04;;;;;;;3.13;1.90;;;;;;;17.00;100.00;98531.22;5093677;28;20686;-80
2022/06/22 02:25:36;;;;;;;4.50;2.00;;;;;;;17.09;100.00;98524.13;5094612;28;20207;-79
2022/06/22 02:28:05;;;;;;;2.93;2.20;;;;;;;17.10;100.00;98531.97;5094304;28;20195;-79
2022/06/22 02:30:36;;;;;;;4.10;1.77;;;;;;;17.15;100.00;98524.31;5093806;28;20196;-80
2022/06/22 02:33:07;;;;;;;5.67;1.90;;;;;;;17.23;100.00;98526.22;5006763;28;20281;-79
2022/06/22 02:35:38;;;;;;;4.90;2.17;;;;;;;17.37;100.00;98530.16;5013888;28;20207;-79
2022/06/22 02:38:10;;;;;;;3.20;1.90;;;;;;;17.32;100.00;98533.31;5009602;28;20241;-79
2022/06/22 02:46:18;;;;;;;2.67;1.90;;;;;;;17.08;100.00;98547.34;5011054;28;20214;-79
2022/06/22 02:48:51;;;;;;;3.30;1.87;;;;;;;17.03;100.00;98535.44;5009616;28;20195;-80
2022/06/22 02:51:24;;;;;;;3.53;2.20;;;;;;;16.81;100.00;98526.88;5053855;28;20204;-80
2022/06/22 02:53:53;;;;;;;7.83;2.20;;;;;;;16.86;100.00;98532.59;5092748;28;20196;-79
2022/06/22 02:56:28;;;;;;;4.87;2.60;;;;;;;16.93;100.00;98530.16;5092987;28;20231;-79
2022/06/22 02:58:57;;;;;;;6.10;3.00;;;;;;;16.81;100.00;98528.72;5088695;28;20184;-79
2022/06/22 03:01:31;;;;;;;4.13;2.30;;;;;;;16.81;100.00;98537.56;5092845;28;20198;-80
2022/06/22 03:04:05;;;;;;;6.50;2.60;;;;;;;16.65;100.00;98528.53;5093554;28;20242;-79
2022/06/22 03:06:37;;;;;;;5.43;2.47;;;;;;;16.67;100.00;98532.72;5094059;28;20234;-79
2022/06/22 03:09:07;;;;;;;3.47;2.40;;;;;;;16.69;100.00;98533.44;5088846;28;20199;-79
2022/06/22 03:11:43;;;;;;;3.43;2.47;;;;;;;16.57;100.00;98534.63;5093522;28;20233;-79
2022/06/22 03:14:21;;;;;;;5.47;2.80;;;;;;;16.47;100.00;98536.53;5091524;28;20282;-79
2022/06/22 03:16:57;;;;;;;5.30;2.47;;;;;;;16.46;100.00;98532.16;5091871;28;20637;-79
2022/06/22 03:19:29;;;;;;;4.33;2.77;;;;;;;16.62;100.00;98527.00;5092075;28;20217;-78
2022/06/22 03:21:57;;;;;;;4.73;2.37;;;;;;;16.43;100.00;98535.16;5093548;28;20192;-79
2022/06/22 03:24:40;;;;;;;3.80;2.53;;;;;;;16.31;100.00;98542.53;5052248;28;20215;-79
2022/06/22 03:27:16;;;;;;;7.63;2.93;;;;;;;16.41;100.00;98540.66;5093398;28;20191;-79
2022/06/22 03:29:49;;;;;;;7.00;2.37;;;;;;;16.59;100.00;98543.31;5043826;28;20189;-79
2022/06/22 03:32:25;;;;;;;4.53;2.57;;;;;;;16.35;100.00;98548.41;5049640;28;20201;-79
2022/06/22 03:35:03;;;;;;;5.73;2.30;;;;;;;16.36;100.00;98542.06;5050386;28;20215;-79
2022/06/22 03:37:38;;;;;;;3.63;2.30;;;;;;;16.34;100.00;98549.41;5048225;28;20228;-79
2022/06/22 03:40:12;;;;;;;4.10;2.20;;;;;;;16.51;100.00;98546.78;5045264;28;20193;-79
2022/06/22 03:42:46;;;;;;;4.47;2.20;;;;;;;16.58;100.00;98533.63;5046758;28;20224;-80
2022/06/22 03:45:21;;;;;;;4.67;2.20;;;;;;;16.58;100.00;98542.47;5048682;28;20196;-79
2022/06/22 03:47:57;;;;;;;3.50;2.37;;;;;;;16.62;100.00;98542.19;5047161;28;20227;-79
2022/06/22 03:50:34;;;;;;;3.97;2.43;;;;;;;16.69;100.00;98543.28;5018191;28;20196;-79
2022/06/22 03:53:10;;;;;;;3.03;2.43;;;;;;;16.71;100.00;98550.19;5050968;28;20185;-80
2022/06/22 03:55:41;;;;;;;3.73;2.30;;;;;;;16.66;100.00;98546.25;5044829;28;20193;-79
2022/06/22 03:58:12;;;;;;;3.30;2.40;;;;;;;16.63;100.00;98549.22;5049522;28;20206;-80
2022/06/22 04:00:42;;;;;;;4.57;2.50;;;;;;;16.55;100.00;98547.31;5045901;28;20655;-80
2022/06/22 04:03:14;;;;;;;3.40;2.10;;;;;;;16.43;100.00;98544.00;5048344;28;20203;-80
2022/06/22 04:05:46;;;;;;;2.67;2.03;;;;;;;16.50;100.00;98553.13;5047854;28;20193;-79
2022/06/22 04:08:23;;;;;;;3.73;2.40;;;;;;;16.47;100.00;98556.06;5086249;28;20542;-79
2022/06/22 04:10:57;;;;;;;4.23;2.33;;;;;;;16.56;100.00;98552.50;5091450;28;20219;-79
2022/06/22 04:13:35;;;;;;;3.77;2.30;;;;;;;16.62;100.00;98550.22;5092638;28;20195;-79
2022/06/22 04:16:09;;;;;;;4.37;2.30;;;;;;;16.45;100.00;98560.72;5090732;28;20196;-79
2022/06/22 04:18:46;;;;;;;4.50;2.10;;;;;;;16.56;100.00;98560.50;5092990;28;20195;-79
2022/06/22 04:21:20;;;;;;;3.10;2.00;;;;;;;16.82;100.00;98557.16;5091952;28;20191;-79
2022/06/22 04:23:53;;;;;;;2.43;2.17;;;;;;;16.93;100.00;98564.09;5092431;28;20219;-78
2022/06/22 04:26:26;;;;;;;2.83;2.20;;;;;;;16.90;100.00;98557.22;5092528;28;20446;-79
2022/06/22 04:29:00;;;;;;;4.57;2.03;;;;;;;16.97;100.00;98565.47;5092254;28;20195;-79
2022/06/22 04:31:33;;;;;;;2.67;2.00;;;;;;;16.97;100.00;98565.47;5091712;28;20194;-79
2022/06/22 04:34:07;;;;;;;2.77;2.30;;;;;;;17.09;100.00;98565.09;5092782;28;20227;-79
2022/06/22 04:36:39;;;;;;;6.20;2.77;;;;;;;17.10;100.00;98568.59;5086904;28;20205;-79
2022/06/22 04:39:15;;;;;;;3.37;2.20;;;;;;;17.01;100.00;98569.53;5089342;28;20247;-79
2022/06/22 04:41:44;;;;;;;4.63;2.00;;;;;;;16.84;100.00;98561.34;5090440;28;20651;-79
2022/06/22 04:44:15;;;;;;;5.93;2.47;;;;;;;16.99;100.00;98571.53;5092648;28;20215;-79
2022/06/22 04:46:48;;;;;;;4.07;2.10;;;;;;;16.65;100.00;98577.50;5090613;28;20203;-79
2022/06/22 04:49:23;;;;;;;5.80;2.30;;;;;;;16.69;100.00;98578.88;5096339;28;20195;-79
2022/06/22 04:51:58;;;;;;;3.97;2.30;;;;;;;16.36;100.00;98574.16;5095942;28;20207;-79
2022/06/22 04:54:30;;;;;;;5.47;2.40;;;;;;;16.31;100.00;98585.31;5095668;28;20191;-79
2022/06/22 04:57:04;;;;;;;4.80;2.33;;;;;;;16.34;100.00;98584.16;5092104;28;20715;-79
2022/06/22 04:59:34;;;;;;;3.70;2.40;;;;;;;16.33;100.00;98588.66;5096156;28;20208;-79
2022/06/22 05:02:05;;;;;;;4.43;2.37;;;;;;;16.39;100.00;98596.06;5096410;27;20200;-79
2022/06/22 05:04:39;;;;;;;3.10;2.50;;;;;;;16.30;100.00;98587.09;5094449;28;20223;-79
2022/06/22 05:07:25;;;;;;;3.87;2.60;;;;;;;16.55;100.00;98585.56;5089596;28;20206;-79
2022/06/22 05:09:58;;;;;;;4.93;2.60;;;;;;;16.57;100.00;98594.28;5092661;28;20410;-78
2022/06/22 05:12:29;;;;;;;5.13;2.60;;;;;;;16.65;100.00;98588.19;5095605;28;20206;-79
2022/06/22 05:15:01;;;;;;;5.50;2.50;;;;;;;16.75;100.00;98593.50;5095897;28;20200;-79
2022/06/22 05:17:32;;;;;;;4.40;2.47;;;;;;;16.81;100.00;98582.22;5094607;28;20686;-79
2022/06/22 05:20:11;;;;;;;3.87;2.60;;;;;;;16.69;100.00;98586.91;5097825;27;20200;-78
2022/06/22 05:22:40;;;;;;;2.83;2.40;;;;;;;16.86;100.00;98588.78;5095237;28;20203;-79
2022/06/22 05:25:12;;;;;;;5.73;2.40;;;;;;;16.91;100.00;98592.84;5095328;28;20227;-79
2022/06/22 05:28:01;;;;;;;3.77;2.57;;;;;;;17.04;100.00;98594.13;5097866;27;20204;-79
2022/06/22 05:30:36;;;;;;;6.80;2.30;;;;;;;17.04;100.00;98602.16;5093778;28;20196;-79
2022/06/22 05:33:14;;;;;;;5.07;2.20;;;;;;;17.26;100.00;98594.66;5094779;28;20203;-79
2022/06/22 05:35:48;;;;;;;5.33;2.30;;;;;;;17.17;100.00;98586.53;5093794;28;20203;-78
2022/06/22 05:38:20;;;;;;;6.60;2.20;;;;;;;17.28;100.00;98585.50;5095337;28;20219;-79
2022/06/22 05:40:49;;;;;;;4.10;2.30;;;;;;;17.31;100.00;98595.03;5095451;28;20203;-79
2022/06/22 05:43:18;;;;;;;3.87;2.40;;;;;;;17.40;100.00;98592.28;5094975;28;20279;-79
2022/06/22 05:45:52;;;;;;;2.57;2.17;;;;;;;17.55;100.00;98597.91;5090115;28;20216;-79
2022/06/22 05:48:24;;;;;;;6.33;2.47;;;;;;;17.67;100.00;98606.53;5093988;28;20835;-80
2022/06/22 05:50:57;;;;;;;2.47;2.27;;;;;;;17.77;100.00;98603.78;5097648;27;20199;-79
2022/06/22 05:53:30;;;;;;;2.57;2.33;;;;;;;17.80;100.00;98601.63;5093121;28;20230;-79
2022/06/22 05:56:08;;;;;;;3.00;2.13;;;;;;;17.78;100.00;98598.28;5092961;28;20200;-79
2022/06/22 05:58:43;;;;;;;5.60;2.10;;;;;;;17.99;100.00;98585.34;5092114;28;20642;-79
2022/06/22 06:01:18;;;;;;;3.43;2.20;;;;;;;17.91;100.00;98581.75;5088081;28;20329;-79
2022/06/22 06:03:58;;;;;;;2.63;2.30;;;;;;;17.95;100.00;98577.75;5094594;28;20199;-79
2022/06/22 06:06:32;;;;;;;4.33;2.37;;;;;;;18.10;100.00;98575.34;5093484;28;20223;-79
2022/06/22 06:09:05;;;;;;;5.93;2.67;;;;;;;18.36;100.00;98569.91;5096985;27;20222;-79
2022/06/22 06:11:40;;;;;;;6.07;2.00;;;;;;;18.55;100.00;98565.13;5094450;28;20194;-79
2022/06/22 06:14:14;;;;;;;2.50;2.00;;;;;;;18.63;100.00;98566.16;5094320;28;20187;-79
2022/06/22 06:16:46;;;;;;;4.40;1.90;;;;;;;18.83;100.00;98570.25;5088342;28;20195;-79
2022/06/22 06:19:18;;;;;;;4.37;2.00;;;;;;;18.95;100.00;98578.81;5093227;28;20214;-79
2022/06/22 06:21:54;;;;;;;2.47;2.03;;;;;;;18.87;100.00;98585.00;5091918;28;20199;-78
2022/06/22 06:24:26;;;;;;;2.23;1.70;;;;;;;18.94;100.00;98574.47;5094295;28;20199;-79
2022/06/22 06:29:48;;;;;;;2.53;1.70;;;;;;;19.22;100.00;98572.31;5094097;28;20188;-79
2022/06/22 06:32:34;;;;;;;3.27;1.73;;;;;;;19.39;100.00;98568.59;5089400;28;20207;-79
2022/06/22 06:35:08;;;;;;;3.10;1.67;;;;;;;19.46;100.00;98566.91;5093824;28;20698;-78
2022/06/22 06:37:45;;;;;;;2.73;1.67;;;;;;;19.56;100.00;98572.16;5093812;28;20314;-79
2022/06/22 06:40:20;;;;;;;2.00;1.57;;;;;;;19.61;100.00;98564.44;5094089;28;20236;-79
2022/06/22 06:42:55;;;;;;;2.17;1.70;;;;;;;19.83;100.00;98561.03;5093677;28;20203;-79
2022/06/22 06:45:25;;;;;;;2.20;1.50;;;;;;;19.86;100.00;98576.78;5093775;28;20221;-80
2022/06/22 06:47:58;;;;;;;3.33;1.70;;;;;;;19.92;100.00;98573.44;5094004;28;20222;-79
2022/06/22 06:50:33;;;;;;;2.93;1.50;;;;;;;19.97;100.00;98578.28;5093651;28;20195;-79
2022/06/22 06:53:24;;;;;;;4.03;1.57;;;;;;;20.12;100.00;98581.09;5093651;28;20203;-79
2022/06/22 06:55:57;;;;;;;2.33;1.63;;;;;;;20.06;100.00;98576.41;5089205;28;20248;-79
2022/06/22 06:58:32;;;;;;;1.90;1.40;;;;;;;20.02;100.00;98575.91;5093762;28;20195;-79
2022/06/22 07:01:00;;;;;;;3.83;1.70;;;;;;;20.04;100.00;98578.44;5092293;28;20206;-79
2022/06/22 07:03:35;;;;;;;3.33;1.67;;;;;;;20.14;100.00;98579.06;5093397;28;20195;-79
2022/06/22 07:06:04;;;;;;;3.67;1.70;;;;;;;20.24;100.00;98579.72;5093576;28;20219;-79
2022/06/22 07:08:37;;;;;;;5.83;1.80;;;;;;;20.45;100.00;98574.59;5095653;27;20219;-79
2022/06/22 07:11:16;;;;;;;5.20;1.87;;;;;;;20.52;100.00;98572.91;5093268;28;20195;-79
2022/06/22 07:13:49;;;;;;;4.15;2.08;;;;;;;20.65;100.00;98572.31;5093498;28;20199;-79
2022/06/22 07:16:21;;;;;;;4.77;1.90;;;;;;;20.38;100.00;98575.47;5090018;28;20195;-78
2022/06/22 07:18:55;;;;;;;2.85;1.98;;;;;;;20.57;100.00;98572.38;5093592;28;20184;-79
2022/06/22 07:21:32;;;;;;;5.63;1.63;;;;;;;20.79;100.00;98576.13;5092139;28;20194;-79
2022/06/22 07:24:09;;;;;;;3.40;1.65;;;;;;;20.96;100.00;98575.00;5093318;28;20281;-79
2022/06/22 07:26:49;;;;;;;3.00;1.53;;;;;;;21.15;100.00;98579.91;5089906;28;20222;-80
2022/06/22 07:29:25;;;;;;;4.35;2.00;;;;;;;21.23;100.00;98587.09;5089224;28;20223;-79
2022/06/22 07:31:58;;;;;;;3.88;1.77;;;;;;;21.33;100.00;98592.28;5092066;28;20199;-79
2022/06/22 07:34:31;;;;;;;4.65;1.90;;;;;;;21.17;100.00;98584.28;5095384;28;20199;-79
2022/06/22 07:37:04;;;;;;;3.88;1.70;;;;;;;21.14;100.00;98578.25;5089215;28;20192;-79
2022/06/22 07:39:39;;;;;;;3.83;1.50;;;;;;;21.51;100.00;98579.31;5093257;28;20352;-79
2022/06/22 07:42:11;;;;;;;6.20;1.50;;;;;;;21.58;100.00;98576.72;5093140;28;20202;-79
2022/06/22 07:44:40;;;;;;;4.10;1.55;;;;;;;21.83;97.76;98567.38;5090711;28;20222;-79
2022/06/22 07:47:16;;;;;;;2.38;1.50;;;;;;;22.11;92.60;98575.72;5087933;28;20216;-79
2022/06/22 07:49:49;;;;;;;4.55;1.70;;;;;;;22.21;94.87;98573.56;5090152;28;20194;-79
2022/06/22 07:52:24;;;;;;;4.03;1.40;;;;;;;22.16;91.65;98575.97;5092969;28;20188;-79
2022/06/22 07:55:01;;;;;;;4.32;1.50;;;;;;;22.08;91.73;98578.75;5090996;28;20236;-79
2022/06/22 07:57:38;;;;;;;3.53;1.60;;;;;;;22.34;90.11;98582.84;5089885;28;20191;-79
2022/06/22 08:00:13;;;;;;;5.00;1.60;;;;;;;22.54;87.08;98576.69;5093074;28;20195;-80
2022/06/22 08:02:50;;;;;;;4.85;1.58;;;;;;;22.64;87.28;98572.84;5087743;28;20191;-79
2022/06/22 08:05:23;;;;;;;5.30;1.73;;;;;;;22.89;89.22;98566.13;5090440;28;20196;-79
2022/06/22 08:07:57;;;;;;;4.35;1.50;;;;;;;23.03;86.28;98569.78;5091293;28;20204;-80
2022/06/22 08:10:32;;;;;;;2.95;1.67;;;;;;;23.19;85.61;98564.13;5088437;28;20195;-79
2022/06/22 08:13:07;;;;;;;3.92;1.67;;;;;;;23.26;82.08;98562.34;5092758;28;20191;-80
2022/06/22 08:15:39;;;;;;;2.22;1.25;;;;;;;23.45;82.05;98565.38;5089186;28;20207;-80
2022/06/22 08:18:09;;;;;;;7.10;1.67;;;;;;;23.35;84.44;98563.00;5092920;28;20191;-79
2022/06/22 08:20:42;;;;;;;3.55;1.70;;;;;;;23.36;85.25;98559.31;5094807;28;20305;-79
2022/06/22 08:23:17;;;;;;;2.97;1.70;;;;;;;23.44;86.01;98559.16;5096822;28;20203;-79
2022/06/22 08:26:05;;;;;;;3.95;1.67;;;;;;;23.43;84.68;98557.47;5096153;28;20222;-79
2022/06/22 08:28:37;;;;;;;2.45;1.60;;;;;;;23.40;87.11;98555.19;5095219;28;20603;-79
2022/06/22 08:31:06;;;;;;;3.47;1.70;;;;;;;23.88;82.48;98561.59;5092469;28;20199;-79
2022/06/22 08:33:38;;;;;;;2.70;1.50;;;;;;;24.06;79.77;98569.22;5096611;28;20282;-79
2022/06/22 08:36:17;;;;;;;4.22;1.40;;;;;;;23.90;80.21;98577.63;5094659;28;20662;-79
2022/06/22 08:38:53;;;;;;;2.47;1.45;;;;;;;24.03;78.93;98574.16;5096007;28;20343;-90
2022/06/22 08:41:42;;;;;;;5.57;1.73;;;;;;;24.23;81.03;98575.16;5096033;28;20199;-87
2022/06/22 08:44:24;;;;;;;5.18;1.73;;;;;;;24.20;80.35;98581.78;5095582;28;20195;-89
2022/06/22 08:47:26;;;;;;;2.83;1.60;;;;;;;24.52;79.54;98580.31;5092431;28;20242;-89
2022/06/22 08:50:22;;;;;;;3.92;1.85;;;;;;;24.49;77.05;98579.88;5096860;28;20187;-88
2022/06/22 08:53:16;;;;;;;2.90;1.75;;;;;;;24.66;76.89;98577.66;5094849;28;20188;-88
2022/06/22 08:56:08;;;;;;;2.70;1.42;;;;;;;24.79;76.81;98578.53;5094092;28;20245;-79
2022/06/22 08:59:17;;;;;;;3.80;1.63;;;;;;;24.95;74.95;98573.78;5097193;28;20211;-80
2022/06/22 09:01:57;;;;;;;4.57;1.73;;;;;;;24.82;71.57;98582.72;5093424;28;20196;-79
2022/06/22 09:04:49;;;;;;;3.95;2.13;;;;;;;25.20;69.83;98577.66;5096032;28;20215;-79
2022/06/22 09:07:35;;;;;;;4.70;1.67;;;;;;;25.40;65.00;98583.91;5095995;28;20731;-79
2022/06/22 09:10:44;;;;;;;2.60;1.38;;;;;;;25.34;64.96;98581.19;5095784;28;20200;-79
2022/06/22 09:13:38;;;;;;;3.88;1.80;;;;;;;25.38;63.82;98583.31;5078083;28;20219;-79
2022/06/22 09:16:25;;;;;;;5.30;1.92;;;;;;;25.38;62.43;98577.88;5094647;28;20204;-79
2022/06/22 09:19:13;;;;;;;3.33;1.60;;;;;;;25.36;65.82;98576.38;5095568;28;20634;-79
2022/06/22 09:21:54;;;;;;;4.50;1.73;;;;;;;25.59;65.96;98578.72;5096504;28;20226;-80
2022/06/22 09:24:28;;;;;;;3.22;1.70;;;;;;;25.65;65.29;98586.00;5093039;28;20191;-79
2022/06/22 09:27:11;;;;;;;4.63;1.58;;;;;;;26.09;63.34;98582.66;5093322;28;20221;-79
2022/06/22 09:29:53;;;;;;;5.75;1.63;;;;;;;26.10;60.51;98584.31;5095127;28;20222;-79
2022/06/22 09:33:08;;;;;;;2.13;1.40;;;;;;;26.40;58.44;98567.56;5093682;28;20203;-79
2022/06/22 09:35:49;;;;;;;4.78;1.70;;;;;;;26.56;58.76;98555.41;5032821;28;20206;-79
2022/06/22 09:38:33;;;;;;;4.57;1.77;;;;;;;26.39;61.64;98561.31;5087018;28;20219;-79
2022/06/22 09:41:10;;;;;;;6.97;2.38;;;;;;;26.39;65.47;98555.88;5095549;28;20247;-79
2022/06/22 09:44:31;;;;;;;2.50;1.60;;;;;;;26.22;62.98;98549.19;5093182;28;20188;-79
2022/06/22 09:47:35;;;;;;;4.93;2.03;;;;;;;26.56;61.01;98553.50;5092550;28;20219;-79
2022/06/22 09:50:45;;;;;;;1.95;1.55;;;;;;;26.71;59.70;98545.91;5092950;28;20672;-79
2022/06/22 09:53:57;;;;;;;3.45;1.50;;;;;;;26.61;57.24;98550.13;5062981;28;20195;-79
2022/06/22 09:56:41;;;;;;;4.82;1.52;;;;;;;26.76;55.54;98543.38;5094821;28;20196;-79
2022/06/22 09:59:44;;;;;;;4.05;1.75;;;;;;;26.95;54.35;98549.75;5094907;28;20195;-79
2022/06/22 10:02:43;;;;;;;2.00;1.35;;;;;;;27.14;56.83;98548.00;5089753;28;20206;-79
2022/06/22 10:05:43;;;;;;;2.80;1.63;;;;;;;27.26;53.23;98537.22;5087834;28;20198;-79
2022/06/22 10:08:33;;;;;;;5.82;1.52;;;;;;;27.17;53.94;98539.38;5083217;28;20332;-79
2022/06/22 10:11:11;;;;;;;3.63;2.00;;;;;;;27.54;51.87;98536.81;5094646;28;20187;-79
2022/06/22 10:13:56;;;;;;;5.28;2.03;;;;;;;27.47;51.78;98539.56;5094506;28;20195;-80
2022/06/22 10:16:52;;;;;;;3.33;1.80;;;;;;;27.33;50.78;98540.75;5089566;28;20282;-80
2022/06/22 10:19:40;;;;;;;3.67;1.55;;;;;;;28.13;47.82;98543.59;5092989;28;20202;-80
2022/06/22 10:22:24;;;;;;;3.80;2.13;;;;;;;28.67;47.71;98548.22;5096832;27;20202;-80
2022/06/22 10:25:12;;;;;;;3.75;2.90;;;;;;;28.59;46.10;98539.50;5094475;28;20207;-80
2022/06/22 10:28:03;;;;;;;5.45;2.45;;;;;;;28.47;45.84;98548.47;5093742;28;20223;-79
2022/06/22 10:30:43;;;;;;;3.92;1.70;;;;;;;28.92;43.37;98547.25;5090062;28;20468;-79
2022/06/22 10:33:27;;;;;;;2.92;2.05;;;;;;;28.82;42.52;98546.94;5094202;28;20199;-79
2022/06/22 10:36:19;;;;;;;3.35;2.10;;;;;;;28.73;43.42;98543.72;5089253;28;20662;-79
2022/06/22 10:39:05;;;;;;;5.40;1.77;;;;;;;28.66;41.00;98546.53;5094101;28;20243;-80
2022/06/22 10:48:17;;;;;;;11.45;9.68;;;;;;;29.51;37.61;98543.66;5092869;28;20258;-80
2022/06/22 10:50:58;;;;;;;5.80;2.00;;;;;;;29.69;38.84;98542.72;5093868;28;20717;-80
2022/06/22 10:54:05;;;;;;;1.85;1.42;;;;;;;29.89;36.97;98551.38;5091686;28;20195;-79
2022/06/22 11:00:20;;;;;;;3.28;1.60;;;;;;;29.92;37.48;98556.41;5131585;27;20544;-80
2022/06/22 11:03:26;;;;;;;2.13;1.40;;;;;;;30.48;33.44;98554.06;5081777;28;20207;-80
2022/06/22 11:06:14;;;;;;;2.40;1.30;;;;;;;30.84;31.15;98543.88;5085851;28;20207;-80
2022/06/22 11:09:00;;;;;;;2.50;1.50;;;;;;;29.50;33.80;98536.53;5087409;28;20192;-80
2022/06/22 11:11:42;;;;;;;3.10;1.45;;;;;;;30.02;33.90;98541.31;5086592;28;20195;-80
2022/06/22 11:14:49;;;;;;;2.85;1.38;;;;;;;29.76;33.96;98546.16;5081201;28;20187;-80
2022/06/22 11:17:32;;;;;;;4.15;1.50;;;;;;;30.25;33.50;98544.03;5084368;28;20270;-80
2022/06/22 11:20:20;;;;;;;2.75;1.42;;;;;;;31.22;31.91;98546.81;5058452;28;20188;-80
2022/06/22 11:22:53;;;;;;;5.20;2.65;;;;;;;31.18;31.42;98533.84;5131364;27;20190;-80
2022/06/22 11:31:58;;;;;;;2.42;1.45;;;;;;;30.46;32.42;98545.28;5129535;27;20190;-80
2022/06/22 11:34:50;;;;;;;1.90;1.50;;;;;;;30.94;30.26;98538.59;5124343;27;20203;-80
2022/06/22 11:37:32;;;;;;;2.25;1.38;;;;;;;31.29;30.43;98539.28;5131386;27;20209;-80
2022/06/22 11:40:48;;;;;;;1.80;1.42;;;;;;;30.65;32.60;98545.97;5131337;27;20649;-80
2022/06/22 11:43:56;;;;;;;2.55;1.40;;;;;;;31.18;31.03;98539.34;5125701;27;20206;-80
2022/06/22 11:46:28;;;;;;;1.58;1.25;;;;;;;30.77;29.90;98536.66;5129309;27;20241;-80
2022/06/22 11:49:21;;;;;;;3.50;1.55;;;;;;;30.99;31.94;98535.97;5130193;27;20225;-80
2022/06/22 11:52:12;;;;;;;2.35;1.27;;;;;;;31.37;31.71;98537.22;5127522;27;20637;-80
2022/06/22 11:54:55;;;;;;;2.17;1.13;;;;;;;31.84;30.43;98544.03;5130385;27;20187;-80
2022/06/22 11:57:54;;;;;;;1.20;1.10;;;;;;;31.50;28.61;98543.19;5130473;27;20281;-80
2022/06/22 12:00:35;;;;;;;1.08;0.90;;;;;;;31.88;26.99;98534.25;5071006;28;20370;-80
2022/06/22 12:03:41;;;;;;;1.73;1.30;;;;;;;31.59;28.99;98532.66;5092278;28;20363;-80
2022/06/22 12:06:33;;;;;;;1.50;1.02;;;;;;;31.81;26.90;98530.00;5089237;28;20227;-80
2022/06/22 12:09:34;;;;;;;1.45;1.23;;;;;;;32.40;25.91;98531.13;5086728;28;20670;-80
2022/06/22 12:12:30;;;;;;;2.25;1.23;;;;;;;32.41;27.07;98535.53;5075645;28;20200;-80
2022/06/22 12:15:09;;;;;;;1.40;1.20;;;;;;;32.32;25.89;98534.31;5078199;28;20197;-80
2022/06/22 12:17:55;;;;;;;2.25;1.38;;;;;;;31.65;27.61;98530.81;5071193;28;20204;-80
2022/06/22 12:20:38;;;;;;;1.45;1.20;;;;;;;30.76;27.83;98521.31;5075569;28;20203;-80
2022/06/22 12:23:16;;;;;;;1.10;1.00;;;;;;;30.83;28.93;98523.91;5075097;28;20207;-80
2022/06/22 12:26:16;;;;;;;2.35;1.40;;;;;;;30.14;29.33;98523.84;5075550;28;20207;-80
2022/06/22 12:28:58;;;;;;;1.42;1.13;;;;;;;31.45;28.25;98517.63;5079254;28;20197;-80
2022/06/22 12:31:35;;;;;;;2.30;1.60;;;;;;;31.66;28.75;98519.63;5069442;28;20207;-79
2022/06/22 12:34:29;;;;;;;3.83;1.40;;;;;;;31.96;28.30;98519.28;5075705;28;20208;-80
2022/06/22 12:37:03;;;;;;;2.20;1.30;;;;;;;31.63;29.20;98511.91;5075247;28;20196;-80
2022/06/22 12:39:36;;;;;;;2.10;1.20;;;;;;;32.33;28.73;98507.72;5076256;28;20311;-80
2022/06/22 12:42:46;;;;;;;2.78;1.38;;;;;;;32.09;28.94;98507.94;5078318;28;20200;-79
2022/06/22 12:45:47;;;;;;;1.85;1.20;;;;;;;32.37;28.49;98501.50;5072971;28;20200;-80
2022/06/22 12:48:41;;;;;;;1.98;1.30;;;;;;;32.51;29.15;98510.16;5074865;28;20200;-79
2022/06/22 12:51:17;;;;;;;2.55;1.20;;;;;;;32.56;28.57;98503.91;5072182;28;20204;-79
2022/06/22 12:53:54;;;;;;;1.95;1.20;;;;;;;32.90;28.54;98499.91;5075838;28;20219;-79